Flight Track Log - Related Links

Times and Time Zones

All times are in EDT time to prevent confusion due to time zone crossing. See the CPZ5718 flight status page for this flight to view local times or setup timezone preferences in your user account.

Time Position Orientation Groundspeed Altitude Reporting Facility
EDT Latitude Longitude Course Direction KTS MPH feet Rate Location/Type
Tue 06:48:51 AM 42.7694 -73.8089 281° West 166 191 1,000  Level Boston Center
Tue 06:49:33 AM 42.8025 -73.8211 345° North 179 206 2,100 1,748 Climbing Boston Center
Tue 06:50:34 AM 42.8478 -73.8758 318° Northwest 237 273 4,000 2,237 Climbing Boston Center
Tue 06:51:31 AM 42.8969 -73.9308 321° Northwest 259 298 6,500 2,667 Climbing Boston Center
Tue 06:52:00 AM 42.8392 -74.3681 283° West  Level FlightAware Approximate
Tue 06:52:31 AM 42.9544 -73.9975 320° Northwest 265 305 9,200  Level Boston Center
Tue 06:53:00 AM 42.8632 -74.5127 283° West  Level FlightAware Approximate
Tue 06:53:31 AM 43.0119 -74.0700 317° Northwest 270 311 11,100  Level Boston Center
Tue 06:54:00 AM 42.8967 -74.6473 281° West  Level FlightAware Approximate
Tue 06:54:31 AM 43.0794 -74.1514 319° Northwest 313 360 13,200  Level Boston Center
Tue 06:55:31 AM 43.1278 -74.2581 302° West 324 373 14,500 1,750 Climbing Boston Center
Tue 06:56:31 AM 43.1297 -74.3917 271° West 330 380 16,700 1,700 Climbing Boston Center
Tue 06:57:31 AM 43.1339 -74.5169 273° West 356 410 17,900 1,450 Climbing Boston Center
Tue 06:58:31 AM 43.1375 -74.6594 272° West 369 425 19,600 1,550 Climbing Boston Center
Tue 06:59:31 AM 43.1386 -74.8017 271° West 374 430 21,000 1,450 Climbing Boston Center
Tue 07:00:31 AM 43.1419 -74.9500 272° West 381 438 22,500 1,500 Climbing Boston Center
Tue 07:01:31 AM 43.1447 -75.0981 272° West 387 445 24,000 1,250 Climbing Boston Center
Tue 07:02:31 AM 43.1472 -75.2547 271° West 400 460 25,000 1,050 Climbing Boston Center
Tue 07:03:31 AM 43.1453 -75.4111 269° West 407 468 26,100 1,050 Climbing Boston Center
Tue 07:04:31 AM 43.1369 -75.5700 266° West 412 474 27,100 1,000 Climbing Boston Center
Tue 07:05:31 AM 43.1283 -75.7292 266° West 418 481 28,100 900 Climbing Boston Center
Tue 07:06:31 AM 43.1214 -75.8881 267° West 418 481 28,900 950 Climbing Boston Center
Tue 07:07:31 AM 43.1122 -76.0497 266° West 423 487 30,000 1,050 Climbing Boston Center
Tue 07:08:31 AM 43.1006 -76.2197 265° West 418 481 31,000 1,000 Climbing Boston Center
Tue 07:09:31 AM 43.0931 -76.3786 266° West 418 481 32,000 863 Climbing Boston Center
Tue 07:11:11 AM 43.0778 -76.6150 265° West 404 465 33,300 750 Climbing Cleveland Center
Tue 07:12:11 AM 43.0647 -76.7864 264° West 404 465 34,000 350 Climbing Cleveland Center
Tue 07:13:11 AM 43.0553 -76.9433 265° West 409 471 34,000  Level Cleveland Center
Tue 07:14:11 AM 43.0433 -77.0975 264° West 409 471 34,000  Level Cleveland Center
Tue 07:15:11 AM 43.0333 -77.2542 265° West 409 471 34,000  Level Cleveland Center
Tue 07:16:11 AM 43.0233 -77.4139 265° West 415 478 34,000  Level Cleveland Center
Tue 07:17:11 AM 43.0131 -77.5733 265° West 422 486 34,000  Level Cleveland Center
Tue 07:18:11 AM 43.0003 -77.7358 264° West 427 491 34,000  Level Cleveland Center
Tue 07:19:11 AM 42.9875 -77.8983 264° West 427 491 34,000  Level Cleveland Center
Tue 07:20:11 AM 42.9744 -78.0578 264° West 427 491 34,000  Level Cleveland Center
Tue 07:21:11 AM 42.9633 -78.2200 265° West 427 491 34,000  Level Cleveland Center
Tue 07:22:11 AM 42.9519 -78.3819 265° West 433 498 34,000  Level Cleveland Center
Tue 07:23:11 AM 42.9403 -78.5414 264° West 433 498 34,000  Level Cleveland Center
Tue 07:24:11 AM 42.9408 -78.7000 270° West 428 493 34,000  Level Cleveland Center
Tue 07:25:11 AM 42.9744 -78.8522 287° West 417 480 34,000  Level Cleveland Center
Tue 07:26:11 AM 43.0081 -79.0075 287° West 427 491 34,000  Level Cleveland Center
Tue 07:27:11 AM 43.0414 -79.1631 286° West 427 491 34,000  Level Cleveland Center
Tue 07:28:11 AM 43.0744 -79.3156 287° West 432 497 34,000  Level Cleveland Center
Tue 07:29:33 AM 43.1000 -79.5167 280° West 430 495 34,000  Level Toronto Center
Tue 07:30:33 AM 43.1333 -79.6500 289° West 430 495 34,000  Level Toronto Center
Tue 07:31:33 AM 43.1667 -79.8167 285° West 430 495 34,000  Level Toronto Center
Tue 07:32:33 AM 43.2000 -79.9833 285° West 430 495 34,000  Level Toronto Center
Tue 07:33:33 AM 43.2333 -80.1333 287° West 430 495 34,000  Level Toronto Center
Tue 07:34:33 AM 43.2667 -80.3000 285° West 430 495 34,000  Level Toronto Center
Tue 07:35:33 AM 43.3000 -80.4500 287° West 420 483 34,000  Level Toronto Center
Tue 07:36:33 AM 43.3333 -80.6000 287° West 420 483 34,000  Level Toronto Center
Tue 07:37:33 AM 43.3667 -80.7500 287° West 420 483 34,000  Level Toronto Center
Tue 07:38:33 AM 43.3833 -80.9167 278° West 420 483 34,000  Level Toronto Center
Tue 07:39:33 AM 43.4167 -81.0833 285° West 420 483 34,000  Level Toronto Center
Tue 07:40:33 AM 43.4333 -81.2167 280° West 420 483 34,000  Level Toronto Center
Tue 07:41:33 AM 43.4667 -81.3833 285° West 420 483 34,000  Level Toronto Center
Tue 07:42:33 AM 43.5000 -81.5333 287° West 420 483 34,000  Level Toronto Center
Tue 07:43:33 AM 43.5333 -81.6833 287° West 420 483 34,000  Level Toronto Center
Tue 07:44:33 AM 43.5667 -81.8500 285° West 420 483 34,000  Level Toronto Center
Tue 07:45:33 AM 43.5833 -82.0000 279° West 420 483 34,000  Level Toronto Center
Tue 07:46:33 AM 43.6167 -82.1667 285° West 420 483 34,000  Level Toronto Center
Tue 07:47:33 AM 43.6500 -82.3000 289° West 410 472 34,000  Level Toronto Center
Tue 07:48:33 AM 43.6833 -82.4667 286° West 410 472 34,000  Level Toronto Center
Tue 07:49:37 AM 43.7125 -82.6300 284° West 409 471 34,000  Level Minneapolis Center
Tue 07:50:38 AM 43.7394 -82.7822 284° West 408 470 34,000  Level Minneapolis Center
Tue 07:51:33 AM 43.7500 -82.9167 276° West 410 472 34,000  Level Toronto Center
Tue 07:52:33 AM 43.7833 -83.0667 287° West 410 472 34,000  Level Toronto Center
Tue 07:53:33 AM 43.8000 -83.2333 278° West 420 483 34,000  Level Toronto Center
Tue 07:54:33 AM 43.8333 -83.3833 287° West 410 472 34,000  Level Toronto Center
Tue 07:55:33 AM 43.8667 -83.5500 286° West 420 483 34,000 50 Level Toronto Center
Tue 07:56:33 AM 43.9000 -83.7000 287° West 420 483 34,100 450 Climbing Toronto Center
Tue 07:57:33 AM 43.9167 -83.8500 279° West 410 472 34,900 750 Climbing Toronto Center
Tue 07:58:33 AM 43.9500 -84.0167 286° West 410 472 35,600 550 Climbing Toronto Center
Tue 07:59:33 AM 43.9667 -84.1500 280° West 410 472 36,000 200 Climbing Toronto Center
Tue 08:00:33 AM 43.9833 -84.3167 278° West 410 472 36,000  Level Toronto Center
Tue 08:01:33 AM 44.0167 -84.4500 289° West 420 483 36,000  Level Toronto Center
Tue 08:02:33 AM 44.0333 -84.6500 277° West 430 495 36,000  Level Toronto Center
Tue 08:03:33 AM 44.0667 -84.7833 289° West 420 483 36,000  Level Toronto Center
Tue 08:04:33 AM 44.0833 -84.9500 278° West 420 483 36,000  Level Toronto Center
Tue 08:05:33 AM 44.1167 -85.1167 286° West 430 495 36,000  Level Toronto Center
Tue 08:06:33 AM 44.1500 -85.2500 289° West 420 483 36,000  Level Toronto Center
Tue 08:07:33 AM 44.1667 -85.4500 277° West 410 472 36,000  Level Toronto Center
Tue 08:08:33 AM 44.1833 -85.5833 280° West 420 483 36,000  Level Toronto Center
Tue 08:09:03 AM 44.2064 -85.6397 300° West 413 475 36,000  Level Minneapolis Center
Tue 08:10:04 AM 44.2283 -85.7972 281° West 414 476 36,000  Level Minneapolis Center
Tue 08:11:05 AM 44.2511 -85.9542 282° West 412 474 36,000  Level Minneapolis Center
Tue 08:12:07 AM 44.2742 -86.1103 282° West 411 473 36,000  Level Minneapolis Center
Tue 08:13:08 AM 44.3008 -86.2972 281° West 407 468 36,000  Level Minneapolis Center
Tue 08:14:10 AM 44.3231 -86.4522 281° West 407 468 36,000  Level Minneapolis Center
Tue 08:15:11 AM 44.3450 -86.6083 281° West 408 470 36,000  Level Minneapolis Center
Tue 08:16:13 AM 44.3686 -86.7672 282° West 414 476 36,000  Level Minneapolis Center
Tue 08:17:14 AM 44.3894 -86.9242 281° West 413 475 36,000  Level Minneapolis Center
Tue 08:18:16 AM 44.4100 -87.0800 281° West 409 471 36,000  Level Minneapolis Center
Tue 08:19:18 AM 44.4325 -87.2436 281° West 417 480 36,000  Level Minneapolis Center
Tue 08:20:19 AM 44.4536 -87.3967 281° West 413 475 36,000  Level Minneapolis Center
Tue 08:21:21 AM 44.4733 -87.5542 280° West 412 474 36,000  Level Minneapolis Center
Tue 08:22:22 AM 44.4989 -87.7425 281° West 412 474 36,000  Level Minneapolis Center
Tue 08:23:24 AM 44.5183 -87.8983 280° West 408 470 36,000  Level Minneapolis Center
Tue 08:24:26 AM 44.5381 -88.0486 280° West 402 463 36,000  Level Minneapolis Center
Tue 08:25:27 AM 44.5567 -88.2053 280° West 405 466 36,000  Level Minneapolis Center
Tue 08:26:29 AM 44.5756 -88.3633 280° West 411 473 36,000  Level Minneapolis Center
Tue 08:27:31 AM 44.5933 -88.5203 279° West 410 472 36,000  Level Minneapolis Center
Tue 08:28:32 AM 44.6158 -88.7036 280° West 410 472 36,000  Level Minneapolis Center
Tue 08:29:34 AM 44.6325 -88.8600 279° West 408 470 36,000  Level Minneapolis Center
Tue 08:30:36 AM 44.6497 -89.0172 279° West 408 470 36,000  Level Minneapolis Center
Tue 08:31:37 AM 44.6667 -89.1711 279° West 403 464 36,000  Level Minneapolis Center
Tue 08:32:39 AM 44.6839 -89.3258 279° West 402 463 36,000  Level Minneapolis Center
Tue 08:33:41 AM 44.7006 -89.4800 279° West 401 461 36,000 -339 Level Minneapolis Center
Tue 08:34:43 AM 44.7167 -89.6625 277° West 403 464 35,300 -829 Descending Minneapolis Center
Tue 08:35:44 AM 44.6686 -89.7953 243° Southwest 385 443 34,300 -976 Descending Minneapolis Center
Tue 08:36:46 AM 44.6094 -89.9214 237° Southwest 384 442 33,300 -968 Descending Minneapolis Center
Tue 08:37:48 AM 44.5525 -90.0411 236° Southwest 373 429 32,300 -976 Descending Minneapolis Center
Tue 08:38:49 AM 44.4950 -90.1589 236° Southwest 369 425 31,300 -976 Descending Minneapolis Center
Tue 08:39:51 AM 44.4694 -90.2922 255° West 360 414 30,300 -1,065 Descending Minneapolis Center
Tue 08:40:53 AM 44.5222 -90.4419 296° West 367 422 29,100 -1,065 Descending Minneapolis Center
Tue 08:41:55 AM 44.5728 -90.5783 298° West 385 443 28,100 -976 Descending Minneapolis Center
Tue 08:42:56 AM 44.6225 -90.7183 297° West 384 442 27,100 -976 Descending Minneapolis Center
Tue 08:43:58 AM 44.6753 -90.8611 298° West 408 470 26,100 -968 Descending Minneapolis Center
Tue 08:45:00 AM 44.7192 -91.0072 293° West 410 472 25,100 -976 Descending Minneapolis Center
Tue 08:46:01 AM 44.7572 -91.1542 290° West 404 465 24,100 -537 Descending Minneapolis Center
Tue 08:47:03 AM 44.7956 -91.3022 290° West 404 465 24,000 -48 Descending Minneapolis Center
Tue 08:48:05 AM 44.8347 -91.4500 291° West 405 466 24,000 -677 Level Minneapolis Center
Tue 08:49:07 AM 44.8797 -91.6278 290° West 404 465 22,600 -2,000 Descending Minneapolis Center
Tue 08:50:08 AM 44.9186 -91.7753 290° West 403 464 19,900 -2,585 Descending Minneapolis Center
Tue 08:51:10 AM 44.9558 -91.9186 290° West 392 451 17,300 -2,419 Descending Minneapolis Center
Tue 08:52:12 AM 44.9894 -92.0528 290° West 368 423 14,900 -2,341 Descending Minneapolis Center
Tue 08:53:13 AM 45.0236 -92.1869 290° West 365 420 12,500 -1,902 Descending Minneapolis Center
Tue 08:54:15 AM 45.0433 -92.3244 282° West 366 421 11,000 -726 Descending Minneapolis Center
Tue 08:55:17 AM 45.0219 -92.4644 258° West 366 421 11,000  Level Minneapolis Center
Tue 08:56:19 AM 44.9947 -92.6314 257° West 366 421 11,000 -390 Level Minneapolis Center
Tue 08:57:20 AM 44.9744 -92.7586 257° West 331 381 10,200 -878 Descending Minneapolis Center
Tue 08:58:22 AM 44.9564 -92.8736 258° West 305 351 9,200 -968 Descending Minneapolis Center
Tue 08:59:24 AM 44.9375 -92.9878 257° West 302 348 8,200 -581 Descending Minneapolis Center
Tue 09:00:26 AM 44.9386 -93.0861 271° West 258 297 8,000 -726 Descending Minneapolis Center
Tue 09:01:28 AM 44.9878 -93.1667 311° West 226 260 6,700 -1,113 Descending Minneapolis Center
Tue 09:02:30 AM 45.0283 -93.2331 311° West 225 259 5,700 -829 Descending Minneapolis Center
Tue 09:03:31 AM 45.0600 -93.3061 302° West 221 254 5,000 -341 Descending Minneapolis Center
Tue 09:04:33 AM 45.0942 -93.3792 304° West 225 259 5,000  Level Minneapolis Center
Tue 09:05:35 AM 45.1164 -93.4550 293° West 218 251 5,000  Level Minneapolis Center
Tue 09:06:36 AM 45.0694 -93.4547 180° South 187 215 5,000 -439 Level Minneapolis Center
Tue 09:07:38 AM 45.0119 -93.4119 152° Southeast 192 221 4,100 -732 Descending Minneapolis Center
Tue 09:08:39 AM 44.9672 -93.3753 150° Southeast 188 216 3,500 -590 Descending Minneapolis Center

Login

Don't have an account? Register now (free) for customized features, flight alerts, and more!